.
WxDataArchive / Data Records for 2008-04-27
2008-04-26 April 2008 2008-04-28

Data Records for Sunday, 27 April 2008

Time	Temp	Chill	HIndex	Humid	Dewpt	 Wind 	HiWind	WindDir	Rain 	Barom 
-----	----	-----	------	-----	-----	------	------	-------	-----	----- 
00:00	49.8	49.8	49.8	55	34.3	0	1	248	0.00	30.099 
00:05	49.5	49.5	49.5	56	34.5	0	1	248	0.00	30.095 
00:10	49.4	49.4	49.4	56	34.4	0	0	---	0.00	30.096 
00:15	49.2	49.2	49.2	56	34.2	0	0	---	0.00	30.096 
00:20	48.9	48.9	48.9	57	34.3	0	1	248	0.00	30.096 
00:25	48.6	48.6	48.6	58	34.5	0	0	---	0.00	30.095 
00:30	48.2	48.2	48.2	58	34.1	0	0	---	0.00	30.098 
00:35	47.7	47.7	47.7	59	34.1	0	1	248	0.00	30.100 
00:40	47.6	47.6	47.6	59	34.0	0	1	248	0.00	30.099 
00:45	47.3	47.3	47.3	60	34.1	0	1	248	0.00	30.102 
00:50	47.1	47.1	47.1	61	34.4	0	1	248	0.00	30.104 
00:55	47.0	47.0	47.0	61	34.3	0	1	248	0.00	30.108 
01:00	46.7	46.7	46.7	61	34.0	0	0	---	0.00	30.109 
01:05	46.4	46.4	46.4	62	34.1	0	1	248	0.00	30.110 
01:10	46.2	46.2	46.2	62	33.9	0	0	---	0.00	30.106 
01:15	45.8	45.8	45.8	62	33.5	0	0	---	0.00	30.105 
01:20	45.5	45.5	45.5	63	33.6	0	0	---	0.00	30.105 
01:25	45.2	45.2	45.2	64	33.8	0	0	---	0.00	30.101 
01:30	44.9	44.9	44.9	65	33.9	0	0	---	0.00	30.096 
01:35	44.5	44.5	44.5	65	33.5	0	0	---	0.00	30.092 
01:40	44.2	44.2	44.2	67	33.9	0	0	---	0.00	30.083 
01:45	44.1	44.1	44.1	67	33.9	0	0	---	0.00	30.083 
01:50	43.9	43.9	43.9	68	34.0	0	0	---	0.00	30.083 
01:55	43.9	43.9	43.9	69	34.4	0	0	---	0.00	30.082 
02:00	43.8	43.8	43.8	69	34.3	0	0	---	0.00	30.085 
02:05	43.6	43.6	43.6	70	34.5	0	0	---	0.00	30.084 
02:10	43.3	43.3	43.3	70	34.2	0	0	---	0.00	30.088 
02:15	43.2	43.2	43.2	71	34.4	0	0	---	0.00	30.092 
02:20	42.9	42.9	42.9	72	34.5	0	0	---	0.00	30.091 
02:25	42.8	42.8	42.8	73	34.8	0	0	---	0.00	30.095 
02:30	42.5	42.5	42.5	73	34.5	0	0	---	0.00	30.096 
02:35	42.2	42.2	42.2	73	34.2	0	0	---	0.00	30.096 
02:40	42.1	42.1	42.1	73	34.1	0	0	---	0.00	30.096 
02:45	41.9	41.9	41.9	73	33.9	0	0	---	0.00	30.097 
02:50	41.9	41.9	41.9	73	33.9	0	0	---	0.00	30.093 
02:55	41.9	41.9	41.9	74	34.2	0	0	---	0.00	30.093 
03:00	41.9	41.9	41.9	74	34.2	0	0	---	0.00	30.091 
03:05	41.8	41.8	41.8	74	34.1	0	0	---	0.00	30.090 
03:10	41.6	41.6	41.6	75	34.3	0	0	---	0.00	30.096 
03:15	41.5	41.5	41.5	75	34.2	0	0	---	0.00	30.097 
03:20	41.3	41.3	41.3	75	34.0	0	0	---	0.00	30.099 
03:25	41.1	41.1	41.1	76	34.1	0	0	---	0.00	30.100 
03:30	40.9	40.9	40.9	77	34.3	0	0	---	0.00	30.100 
03:35	40.8	40.8	40.8	77	34.2	0	0	---	0.00	30.103 
03:40	40.6	40.6	40.6	78	34.3	0	0	---	0.00	30.104 
03:45	40.5	40.5	40.5	78	34.2	0	0	---	0.00	30.105 
03:50	40.3	40.3	40.3	78	34.0	0	0	---	0.00	30.104 
03:55	40.2	40.2	40.2	78	33.9	0	0	---	0.00	30.103 
04:00	40.2	40.2	40.2	79	34.2	0	0	---	0.00	30.104 
04:05	40.2	40.2	40.2	79	34.2	0	0	---	0.00	30.104 
04:10	40.3	40.3	40.3	79	34.3	0	1	248	0.00	30.107 
04:15	40.8	40.8	40.8	78	34.5	0	1	248	0.00	30.112 
04:20	41.2	41.2	41.2	77	34.5	0	0	---	0.00	30.113 
04:25	41.3	41.3	41.3	75	34.0	0	0	---	0.00	30.115 
04:30	41.5	41.5	41.5	75	34.2	0	0	---	0.00	30.112 
04:35	41.3	41.3	41.3	74	33.6	0	0	---	0.00	30.111 
04:40	41.3	41.3	41.3	74	33.6	0	0	---	0.00	30.113 
04:45	41.2	41.2	41.2	74	33.6	0	0	---	0.00	30.111 
04:50	40.9	40.9	40.9	75	33.6	0	0	---	0.00	30.113 
04:55	40.8	40.8	40.8	75	33.5	0	0	---	0.00	30.114 
05:00	40.6	40.6	40.6	76	33.6	0	0	---	0.00	30.114 
05:05	40.5	40.5	40.5	76	33.5	0	0	---	0.00	30.116 
05:10	40.3	40.3	40.3	77	33.7	0	0	---	0.00	30.115 
05:15	40.2	40.2	40.2	77	33.6	0	0	---	0.00	30.117 
05:20	39.9	39.9	39.9	77	33.3	0	0	---	0.00	30.119 
05:25	39.8	39.8	39.8	78	33.5	0	0	---	0.00	30.121 
05:30	39.6	39.6	39.6	78	33.3	0	0	---	0.00	30.128 
05:35	39.5	39.5	39.5	79	33.5	0	0	---	0.00	30.130 
05:40	39.5	39.5	39.5	79	33.5	0	0	---	0.00	30.133 
05:45	39.6	39.6	39.6	79	33.6	0	0	---	0.00	30.140 
05:50	39.6	39.6	39.6	79	33.6	0	0	---	0.00	30.141 
05:55	39.9	39.9	39.9	79	33.9	0	1	248	0.00	30.143 
06:00	40.3	40.3	40.3	77	33.7	0	0	---	0.00	30.141 
06:05	40.8	40.8	40.8	76	33.8	0	1	248	0.00	30.144 
06:10	41.1	41.1	41.1	74	33.5	0	0	---	0.00	30.147 
06:15	41.5	41.5	41.5	74	33.8	0	1	248	0.00	30.144 
06:20	41.9	41.9	41.9	73	33.9	0	0	---	0.00	30.145 
06:25	42.3	42.3	42.3	72	33.9	0	1	248	0.00	30.146 
06:30	42.8	42.8	42.8	70	33.7	0	1	248	0.00	30.147 
06:35	43.2	43.2	43.2	69	33.7	0	1	248	0.00	30.148 
06:40	43.5	43.5	43.5	68	33.7	0	1	248	0.00	30.145 
06:45	44.1	44.1	44.1	67	33.9	0	1	248	0.00	30.144 
06:50	44.3	44.3	44.3	67	34.0	0	1	248	0.00	30.144 
06:55	44.8	44.8	44.8	66	34.1	0	1	248	0.00	30.146 
07:00	45.2	45.2	45.2	65	34.1	0	2	270	0.00	30.147 
07:05	45.5	45.5	45.5	62	33.2	0	3	270	0.00	30.154 
07:10	46.0	46.0	46.0	58	32.1	1	2	315	0.00	30.157 
07:15	46.2	46.2	46.2	59	32.7	0	2	315	0.00	30.158 
07:20	46.4	46.4	46.4	57	32.0	1	3	248	0.00	30.156 
07:25	46.8	46.8	46.8	58	32.8	0	2	270	0.00	30.154 
07:30	47.0	47.0	47.0	56	32.1	1	3	315	0.00	30.156 
07:35	47.0	47.0	47.0	56	32.1	1	3	315	0.00	30.154 
07:40	47.3	47.3	47.3	53	31.0	1	2	315	0.00	30.156 
07:45	47.6	47.6	47.6	53	31.3	1	4	315	0.00	30.157 
07:50	47.6	47.6	47.6	50	29.9	1	3	292	0.00	30.157 
07:55	47.9	47.9	47.9	51	30.7	1	3	315	0.00	30.155 
08:00	48.3	48.3	48.3	52	31.5	0	2	292	0.00	30.159 
08:05	48.6	48.6	48.6	49	30.3	0	2	292	0.00	30.158 
08:10	48.9	48.9	48.9	46	29.0	1	3	338	0.00	30.157 
08:15	49.1	49.1	49.1	45	28.7	1	3	292	0.00	30.160 
08:20	49.4	49.4	49.4	45	29.0	1	3	315	0.00	30.160 
08:25	49.8	49.8	49.8	45	29.3	1	4	315	0.00	30.162 
08:30	50.1	50.1	50.1	39	26.1	1	4	315	0.00	30.162 
08:35	49.9	49.9	49.9	39	25.9	1	3	292	0.00	30.162 
08:40	50.1	50.1	50.1	36	24.2	1	2	315	0.00	30.165 
08:45	50.7	50.7	50.7	35	24.1	1	3	338	0.00	30.162 
08:50	51.1	51.1	51.1	32	22.3	1	3	338	0.00	30.160 
08:55	51.0	51.0	51.0	30	20.7	1	3	338	0.00	30.161 
09:00	50.8	50.8	50.8	29	19.7	1	2	270	0.00	30.159 
09:05	51.3	51.3	51.3	34	23.9	0	2	292	0.00	30.160 
09:10	51.6	51.6	51.6	32	22.7	1	2	338	0.00	30.157 
09:15	52.0	52.0	52.0	31	22.3	1	3	248	0.00	30.155 
09:20	52.0	52.0	52.0	29	20.7	1	3	225	0.00	30.155 
09:25	52.5	52.5	52.5	30	22.0	0	2	292	0.00	30.153 
09:30	53.1	53.1	53.1	34	25.5	0	3	315	0.00	30.148 
09:35	53.6	53.6	53.6	35	26.6	0	2	315	0.00	30.145 
09:40	53.8	53.8	53.8	29	22.3	1	3	248	0.00	30.145 
09:45	53.5	53.5	53.5	29	22.0	1	2	45	0.00	30.148 
09:50	53.6	53.6	53.6	28	21.3	1	2	315	0.00	30.149 
09:55	54.2	54.2	54.2	31	24.2	1	2	315	0.00	30.147 
10:00	55.0	55.0	55.0	33	26.4	1	2	315	0.00	30.144 
10:05	55.0	55.0	55.0	29	23.3	1	3	248	0.00	30.147 
10:10	55.0	55.0	55.0	30	24.1	1	4	248	0.00	30.144 
10:15	54.7	54.7	54.7	28	22.2	1	3	0	0.00	30.143 
10:20	55.3	55.3	55.3	29	23.6	1	3	292	0.00	30.142 
10:25	55.7	55.7	55.7	31	25.5	1	5	292	0.00	30.139 
10:30	56.0	56.0	56.0	28	23.4	1	3	292	0.00	30.133 
10:35	56.0	56.0	56.0	28	23.4	1	2	292	0.00	30.135 
10:40	56.0	56.0	56.0	28	23.4	2	4	248	0.00	30.141 
10:45	56.2	56.2	56.2	29	24.4	1	4	248	0.00	30.142 
10:50	56.0	56.0	56.0	28	23.4	1	3	315	0.00	30.140 
10:55	56.2	56.2	56.2	32	26.7	1	3	338	0.00	30.135 
11:00	56.3	56.3	56.3	29	24.5	1	3	270	0.00	30.129 
11:05	56.9	56.9	56.9	28	24.1	1	2	270	0.00	30.132 
11:10	56.9	56.9	56.9	27	23.3	0	2	248	0.00	30.133 
11:15	56.7	56.7	56.7	27	23.1	1	3	338	0.00	30.128 
11:20	56.7	56.7	56.7	25	21.3	1	4	315	0.00	30.127 
11:25	57.0	57.0	57.0	28	24.2	1	3	248	0.00	30.122 
11:30	57.8	57.8	57.8	30	26.6	1	4	225	0.00	30.118 
11:35	57.8	57.8	57.8	30	26.6	0	2	315	0.00	30.117 
11:40	58.3	58.3	58.3	27	24.5	1	3	315	0.00	30.113 
11:45	58.3	58.3	58.3	28	25.3	1	5	338	0.00	30.111 
11:50	58.6	58.6	58.6	26	23.8	1	3	22	0.00	30.110 
11:55	59.0	59.0	59.0	25	23.2	1	4	248	0.00	30.103 
12:00	59.3	59.3	59.3	27	25.3	1	2	225	0.00	30.099 
12:05	58.7	58.7	58.7	26	23.9	1	3	22	0.00	30.097 
12:10	58.6	58.6	58.6	26	23.8	2	4	248	0.00	30.095 
12:15	58.4	58.4	58.4	27	24.6	1	4	292	0.00	30.093 
12:20	58.6	58.6	58.6	27	24.7	1	3	292	0.00	30.093 
12:25	58.9	58.9	58.9	26	24.1	0	3	315	0.00	30.084 
12:30	59.0	59.0	59.0	26	24.2	1	3	338	0.00	30.081 
12:35	59.2	59.2	59.2	28	26.1	0	2	0	0.00	30.080 
12:40	59.2	59.2	59.2	31	28.6	1	4	338	0.00	30.080 
12:45	59.2	59.2	59.2	24	22.4	0	2	338	0.00	30.078 
12:50	59.2	59.2	59.2	24	22.4	1	3	315	0.00	30.079 
12:55	59.3	59.3	59.3	28	26.2	0	2	315	0.00	30.077 
13:00	59.8	59.8	59.8	28	26.6	1	3	315	0.00	30.074 
13:05	59.8	59.8	59.8	28	26.6	1	3	338	0.00	30.078 
13:10	60.1	60.1	60.1	31	29.4	0	3	0	0.00	30.078 
13:15	60.2	60.2	60.2	30	28.7	0	2	0	0.00	30.077 
13:20	60.1	60.1	60.1	28	26.9	0	2	225	0.00	30.074 
13:25	59.9	59.9	59.9	29	27.6	1	3	22	0.00	30.073 
13:30	59.9	59.9	59.9	28	26.7	1	3	292	0.00	30.071 
13:35	59.6	59.6	59.6	27	25.6	1	3	292	0.00	30.069 
13:40	59.8	59.8	59.8	30	28.3	1	4	315	0.00	30.067 
13:45	59.9	59.9	59.9	27	25.8	1	5	315	0.00	30.066 
13:50	60.1	60.1	60.1	27	26.0	1	3	225	0.00	30.065 
13:55	60.2	60.2	60.2	28	27.0	0	2	225	0.00	30.064 
14:00	60.4	60.4	60.4	28	27.1	1	2	0	0.00	30.061 
14:05	60.7	60.7	60.7	28	27.4	0	2	315	0.00	30.058 
14:10	61.0	61.0	61.0	28	27.7	1	3	225	0.00	30.055 
14:15	61.2	61.2	61.2	29	28.7	1	3	338	0.00	30.054 
14:20	60.5	60.5	60.5	29	28.1	1	3	270	0.00	30.056 
14:25	60.4	60.4	60.4	27	26.3	0	3	22	0.00	30.053 
14:30	60.4	60.4	60.4	30	28.8	1	3	315	0.00	30.049 
14:35	59.9	59.9	59.9	31	29.2	1	3	292	0.00	30.042 
14:40	59.9	59.9	59.9	28	26.7	1	3	45	0.00	30.040 
14:45	60.1	60.1	60.1	29	27.7	0	2	45	0.00	30.039 
14:50	60.2	60.2	60.2	30	28.7	1	6	22	0.00	30.036 
14:55	60.2	60.2	60.2	33	31.0	0	3	22	0.00	30.035 
15:00	60.2	60.2	60.2	28	27.0	1	4	0	0.00	30.033 
15:05	60.1	60.1	60.1	28	26.9	1	4	338	0.00	30.037 
15:10	59.6	59.6	59.6	27	25.6	1	4	338	0.00	30.034 
15:15	59.6	59.6	59.6	27	25.6	1	3	270	0.00	30.037 
15:20	59.6	59.6	59.6	27	25.6	1	5	315	0.00	30.036 
15:25	59.3	59.3	59.3	28	26.2	1	3	248	0.00	30.028 
15:30	59.5	59.5	59.5	29	27.2	1	3	338	0.00	30.030 
15:35	59.3	59.3	59.3	28	26.2	1	5	315	0.00	30.033 
15:40	59.3	59.3	59.3	30	27.9	0	2	270	0.00	30.036 
15:45	59.3	59.3	59.3	28	26.2	1	3	292	0.00	30.033 
15:50	59.0	59.0	59.0	28	25.9	1	4	315	0.00	30.034 
15:55	59.0	59.0	59.0	32	29.2	1	2	270	0.00	30.035 
16:00	59.2	59.2	59.2	30	27.8	0	4	270	0.00	30.027 
16:05	59.3	59.3	59.3	27	25.3	0	4	270	0.00	30.024 
16:10	58.9	58.9	58.9	29	26.7	1	3	0	0.00	30.030 
16:15	58.6	58.6	58.6	31	28.1	0	1	0	0.00	30.024 
16:20	58.4	58.4	58.4	30	27.1	1	3	338	0.00	30.024 
16:25	58.1	58.1	58.1	31	27.6	1	2	315	0.00	30.024 
16:30	57.8	57.8	57.8	30	26.6	0	1	315	0.00	30.020 
16:35	57.6	57.6	57.6	31	27.2	1	4	292	0.00	30.021 
16:40	57.3	57.3	57.3	31	26.9	1	2	0	0.00	30.017 
16:45	57.2	57.2	57.2	33	28.4	0	2	0	0.00	30.016 
16:50	57.0	57.0	57.0	32	27.4	1	4	270	0.00	30.010 
16:55	56.9	56.9	56.9	33	28.1	1	3	292	0.00	30.008 
17:00	56.7	56.7	56.7	34	28.7	0	2	315	0.00	30.008 
17:05	56.6	56.6	56.6	34	28.6	1	3	270	0.00	30.009 
17:10	56.6	56.6	56.6	34	28.6	0	3	338	0.00	30.009 
17:15	56.5	56.5	56.5	35	29.2	0	3	0	0.00	30.009 
17:20	56.5	56.5	56.5	34	28.5	1	4	292	0.00	30.003 
17:25	56.3	56.3	56.3	36	29.7	1	3	292	0.00	30.008 
17:30	56.3	56.3	56.3	36	29.7	0	2	292	0.00	30.004 
17:35	56.2	56.2	56.2	37	30.3	1	2	292	0.00	30.009 
17:40	56.2	56.2	56.2	37	30.3	0	2	315	0.00	30.007 
17:45	56.0	56.0	56.0	39	31.4	0	1	315	0.00	30.010 
17:50	56.0	56.0	56.0	39	31.4	0	1	315	0.00	30.010 
17:55	55.9	55.9	55.9	39	31.3	0	3	270	0.00	30.011 
18:00	55.7	55.7	55.7	39	31.1	0	2	315	0.00	30.010 
18:05	55.7	55.7	55.7	41	32.4	0	1	315	0.00	30.004 
18:10	55.6	55.6	55.6	39	31.0	0	1	315	0.00	30.005 
18:15	55.4	55.4	55.4	39	30.9	0	1	315	0.00	30.006 
18:20	55.3	55.3	55.3	40	31.4	0	1	315	0.00	30.003 
18:25	55.1	55.1	55.1	40	31.2	0	1	315	0.00	30.004 
18:30	55.1	55.1	55.1	42	32.4	0	1	315	0.00	30.004 
18:35	55.1	55.1	55.1	42	32.4	0	1	315	0.00	30.004 
18:40	55.0	55.0	55.0	42	32.3	0	1	315	0.00	30.006 
18:45	54.8	54.8	54.8	42	32.2	0	1	315	0.00	30.005 
18:50	54.7	54.7	54.7	42	32.1	0	2	315	0.00	30.004 
18:55	54.7	54.7	54.7	43	32.6	0	0	---	0.00	30.004 
19:00	54.5	54.5	54.5	43	32.5	0	1	315	0.00	30.003 
19:05	54.4	54.4	54.4	44	32.9	0	1	315	0.00	30.000 
19:10	54.2	54.2	54.2	44	32.8	0	2	315	0.00	30.004 
19:15	54.2	54.2	54.2	44	32.8	0	2	315	0.00	30.004 
19:20	54.1	54.1	54.1	45	33.2	0	2	315	0.00	30.007 
19:25	54.1	54.1	54.1	44	32.7	0	1	315	0.00	30.011 
19:30	54.1	54.1	54.1	46	33.8	0	0	---	0.00	30.016 
19:35	53.9	53.9	53.9	45	33.1	0	1	315	0.00	30.014 
19:40	53.9	53.9	53.9	45	33.1	0	1	315	0.00	30.010 
19:45	53.8	53.8	53.8	46	33.5	0	1	315	0.00	30.010 
19:50	53.8	53.8	53.8	45	33.0	0	3	315	0.00	30.012 
19:55	53.6	53.6	53.6	46	33.3	1	3	315	0.00	30.010 
20:00	53.5	53.5	53.5	47	33.8	0	2	315	0.00	30.014 
20:05	53.5	53.5	53.5	48	34.3	0	1	315	0.00	30.009 
20:10	53.3	53.3	53.3	48	34.1	0	3	315	0.00	30.012 
20:15	53.2	53.2	53.2	49	34.5	0	0	---	0.00	30.012 
20:20	52.9	52.9	52.9	49	34.3	0	1	315	0.00	30.015 
20:25	52.8	52.8	52.8	49	34.2	0	1	315	0.00	30.016 
20:30	52.8	52.8	52.8	49	34.2	0	1	315	0.00	30.017 
20:35	52.6	52.6	52.6	50	34.5	0	1	315	0.00	30.016 
20:40	52.6	52.6	52.6	50	34.5	0	2	315	0.00	30.014 
20:45	52.5	52.5	52.5	50	34.4	0	3	292	0.00	30.017 
20:50	52.5	52.5	52.5	50	34.4	0	2	292	0.00	30.017 
20:55	52.3	52.3	52.3	51	34.7	0	2	292	0.00	30.014 
21:00	52.2	52.2	52.2	51	34.6	0	1	292	0.00	30.014 
21:05	52.2	52.2	52.2	51	34.6	0	1	292	0.00	30.013 
21:10	52.0	52.0	52.0	51	34.4	0	1	292	0.00	30.009 
21:15	51.9	51.9	51.9	52	34.8	0	0	---	0.00	30.005 
21:20	51.9	51.9	51.9	51	34.3	0	1	292	0.00	30.002 
21:25	51.7	51.7	51.7	52	34.6	0	1	292	0.00	30.001 
21:30	51.6	51.6	51.6	51	34.1	0	1	292	0.00	30.000 
21:35	51.6	51.6	51.6	51	34.1	0	1	292	0.00	29.997 
21:40	51.6	51.6	51.6	51	34.1	0	1	292	0.00	29.997 
21:45	51.4	51.4	51.4	51	33.9	0	1	292	0.00	29.993 
21:50	51.3	51.3	51.3	51	33.8	0	1	292	0.00	29.989 
21:55	51.3	51.3	51.3	50	33.3	0	2	292	0.00	29.988 
22:00	51.1	51.1	51.1	50	33.1	0	2	292	0.00	29.989 
22:05	51.0	51.0	51.0	49	32.5	1	2	338	0.00	29.988 
22:10	50.8	50.8	50.8	47	31.3	1	4	315	0.00	29.989 
22:15	50.7	50.7	50.7	46	30.7	1	3	338	0.00	29.987 
22:20	50.4	50.4	50.4	45	29.9	1	3	315	0.00	29.988 
22:25	50.1	50.1	50.1	41	27.3	1	5	338	0.00	29.986 
22:30	49.8	49.8	49.8	41	27.1	1	10	292	0.00	29.984 
22:35	49.5	49.5	49.5	41	26.8	1	3	0	0.00	29.979 
22:40	49.2	49.2	49.2	40	25.9	1	3	292	0.00	29.976 
22:45	49.1	49.1	49.1	42	27.0	0	1	338	0.00	29.975 
22:50	48.8	48.8	48.8	42	26.7	0	2	338	0.00	29.974 
22:55	48.6	48.6	48.6	42	26.6	0	2	338	0.00	29.973 
23:00	48.3	48.3	48.3	42	26.3	0	1	315	0.00	29.972 
23:05	48.2	48.2	48.2	43	26.8	0	2	315	0.00	29.969 
23:10	48.0	48.0	48.0	43	26.6	0	1	315	0.00	29.965 
23:15	48.0	48.0	48.0	44	27.1	0	1	315	0.00	29.963 
23:20	47.9	47.9	47.9	44	27.0	0	1	315	0.00	29.962 
23:25	47.7	47.7	47.7	44	26.9	0	2	315	0.00	29.960 
23:30	47.7	47.7	47.7	44	26.9	0	1	315	0.00	29.956 
23:35	47.7	47.7	47.7	45	27.4	0	0	---	0.00	29.955 
23:40	47.6	47.6	47.6	45	27.3	0	1	315	0.00	29.956 
23:45	47.4	47.4	47.4	45	27.1	0	1	315	0.00	29.955 
23:50	47.3	47.3	47.3	46	27.6	0	1	315	0.00	29.954 
23:55	47.3	47.3	47.3	45	27.0	0	1	315	0.00	29.955 

CoCoRaHS
IN-AL-39
A2 Web Hosting
Creative Commons License
GoDaddy
Look for:

loaded 2017-10-18 07:12:30 • last modified 2010-11-18 10:43:29
Privacy PolicyDisclaimer
• wx.awcolley.com is powered by PmWiki v.2002016 •
• all content (unless otherwise noted) © 2017 A W Colley